Time;durP1;ratioP1;P1;durP2;ratioP2;P2;SDS_P1;SDS_P2;PMS_P1;PMS_P2;Temp;Humidity;BMP_temperature;BMP_pressure;BME280_temperature;BME280_humidity;BME280_pressure;Samples;Min_cycle;Max_cycle;Signal;HPM_P1;HPM_P2
2021/06/29 00:00:20;;;;;;;11.00;8.68;;;21.70;93.30;;;20.95;88.71;100164.66;4988999;28;20510;-77
2021/06/29 00:02:47;;;;;;;10.13;8.48;;;21.70;93.40;;;20.93;88.81;100156.59;4988917;28;20050;-77
2021/06/29 00:05:15;;;;;;;11.02;8.50;;;21.70;93.50;;;20.92;88.67;100148.56;4989239;28;20050;-78
2021/06/29 00:07:43;;;;;;;16.58;8.23;;;21.80;93.50;;;20.90;88.70;100146.06;4992597;28;20069;-77
2021/06/29 00:10:12;;;;;;;12.07;9.18;;;21.70;93.60;;;20.89;88.86;100149.94;4992501;28;20050;-77
2021/06/29 00:12:40;;;;;;;12.25;8.45;;;21.70;93.70;;;20.88;88.71;100145.47;4992675;28;20046;-77
2021/06/29 00:15:09;;;;;;;10.98;8.25;;;21.60;93.60;;;20.87;88.79;100141.06;4992210;28;20077;-77
2021/06/29 00:17:36;;;;;;;11.90;8.63;;;21.60;93.60;;;20.86;88.79;100144.91;4992614;28;20057;-78
2021/06/29 00:20:05;;;;;;;11.90;8.82;;;21.60;93.80;;;20.85;88.85;100143.25;4992834;28;20487;-77
2021/06/29 00:22:32;;;;;;;12.88;8.77;;;21.60;93.70;;;20.85;88.92;100144.09;4992583;28;20050;-77
2021/06/29 00:25:00;;;;;;;12.52;8.45;;;21.50;93.70;;;20.84;88.78;100141.56;4992722;28;20042;-78
2021/06/29 00:27:27;;;;;;;10.85;8.52;;;21.50;93.90;;;20.82;88.90;100138.25;4992438;28;20518;-77
2021/06/29 00:29:56;;;;;;;10.52;8.80;;;21.50;93.90;;;20.80;88.93;100132.97;4992767;28;20077;-77
2021/06/29 00:32:23;;;;;;;12.88;8.63;;;21.50;94.00;;;20.79;88.90;100133.22;4992240;28;20050;-78
2021/06/29 00:34:50;;;;;;;11.32;8.60;;;21.50;94.10;;;20.79;89.16;100130.47;4992611;28;20113;-77
2021/06/29 00:37:17;;;;;;;10.55;8.32;;;21.50;94.20;;;20.78;89.04;100120.50;4991996;28;20247;-77
2021/06/29 00:39:44;;;;;;;12.63;8.98;;;21.50;94.20;;;20.76;88.95;100123.53;4992509;28;20042;-77
2021/06/29 00:42:12;;;;;;;10.45;9.35;;;21.50;94.30;;;20.76;89.08;100133.75;4992240;28;20046;-77
2021/06/29 00:44:39;;;;;;;10.75;8.80;;;21.40;94.10;;;20.75;89.12;100127.38;4992066;28;20491;-77
2021/06/29 00:47:10;;;;;;;9.93;8.80;;;21.40;94.10;;;20.74;89.06;100133.19;4974311;28;20145;-77
2021/06/29 00:49:38;;;;;;;11.55;8.90;;;21.40;94.30;;;20.74;89.25;100133.19;4992131;28;20863;-77
2021/06/29 00:52:11;;;;;;;14.00;9.70;;;21.40;94.40;;;20.73;89.27;100128.75;4992195;28;20050;-77
2021/06/29 00:54:38;;;;;;;12.95;9.18;;;21.40;94.50;;;20.70;89.22;100130.94;4992193;28;20053;-78
2021/06/29 00:57:10;;;;;;;12.65;9.18;;;21.40;94.50;;;20.69;89.38;100129.28;4974369;28;20042;-77
2021/06/29 00:59:39;;;;;;;10.95;9.23;;;21.40;94.60;;;20.69;89.38;100129.28;4992095;28;20050;-77
2021/06/29 01:02:10;;;;;;;15.10;9.75;;;21.40;94.70;;;20.69;89.49;100129.28;4991875;28;20047;-78
2021/06/29 01:04:39;;;;;;;11.13;9.68;;;21.40;94.70;;;20.69;89.57;100125.66;4991784;28;20132;-77
2021/06/29 01:07:09;;;;;;;10.32;9.23;;;21.40;94.80;;;20.67;89.74;100120.38;4991239;28;20066;-77
2021/06/29 01:09:38;;;;;;;10.65;9.23;;;21.40;94.90;;;20.66;90.04;100113.22;4991790;28;20081;-77
2021/06/29 01:12:07;;;;;;;12.63;10.45;;;21.40;94.90;;;20.65;90.17;100108.75;4991345;28;20070;-77
2021/06/29 01:14:34;;;;;;;12.75;10.07;;;21.40;94.90;;;20.64;90.20;100104.34;4991635;28;20042;-77
2021/06/29 01:17:04;;;;;;;13.15;10.75;;;21.40;94.90;;;20.63;90.29;100108.19;4989932;28;20074;-78
2021/06/29 01:19:39;;;;;;;12.13;9.95;;;21.40;94.90;;;20.64;90.33;100104.34;4991599;28;20050;-77
2021/06/29 01:22:10;;;;;;;14.43;10.88;;;21.40;95.00;;;20.64;90.38;100107.09;4990078;28;20058;-77
2021/06/29 01:24:37;;;;;;;12.52;10.40;;;21.40;95.00;;;20.64;90.49;100112.63;4991636;28;20038;-77
2021/06/29 01:27:21;;;;;;;12.70;10.63;;;21.40;95.00;;;20.64;91.06;100103.53;4990909;28;20514;-77
2021/06/29 01:30:58;;;;;;;13.70;11.07;;;21.50;95.10;;;20.64;90.66;100107.09;4991029;28;20053;-78
2021/06/29 01:32:37;;;;;;;11.77;10.25;;;21.50;95.10;;;20.63;90.90;100105.44;4990925;28;20038;-77
2021/06/29 01:35:07;;;;;;;12.23;9.88;;;21.50;95.20;;;20.64;90.91;100120.09;4990814;28;20053;-77
2021/06/29 01:37:36;;;;;;;14.13;9.75;;;21.50;95.20;;;20.63;90.98;100113.72;4990770;28;20128;-78
2021/06/29 01:40:09;;;;;;;13.82;10.55;;;21.50;95.10;;;20.64;90.86;100120.09;4990616;28;20422;-77
2021/06/29 01:42:36;;;;;;;11.75;9.02;;;21.50;95.20;;;20.63;91.05;100123.94;4973275;28;20115;-77
2021/06/29 01:45:05;;;;;;;11.55;9.90;;;21.50;95.00;;;20.63;91.05;100133.06;4990570;28;20054;-77
2021/06/29 01:47:38;;;;;;;14.70;12.02;;;21.50;94.80;;;20.61;91.52;100139.97;4990416;28;20523;-77
2021/06/29 01:50:10;;;;;;;24.90;13.30;;;21.50;95.00;;;20.59;91.70;100134.66;4990612;28;20045;-78
2021/06/29 01:52:39;;;;;;;22.67;14.55;;;21.60;95.00;;;20.62;91.74;100144.38;4987300;28;20074;-77
2021/06/29 01:55:08;;;;;;;24.20;16.88;;;21.60;94.90;;;20.60;92.34;100143.81;4990599;28;20403;-77
2021/06/29 01:57:38;;;;;;;18.45;14.95;;;21.60;95.10;;;20.60;92.62;100149.34;4990184;28;20496;-77
2021/06/29 02:00:09;;;;;;;16.90;14.70;;;21.60;95.10;;;20.59;92.93;100139.38;4990520;28;20049;-78
2021/06/29 02:05:12;;;;;;;18.15;13.60;;;21.60;95.70;;;20.59;93.36;100129.13;4988446;28;20065;-84
2021/06/29 02:07:41;;;;;;;16.42;13.02;;;21.60;95.70;;;20.61;93.02;100131.69;4990146;28;20113;-84
2021/06/29 02:10:10;;;;;;;15.35;12.38;;;21.50;95.90;;;20.60;93.23;100125.31;4990510;28;20073;-84
2021/06/29 02:12:38;;;;;;;15.85;11.55;;;21.50;96.10;;;20.58;92.97;100121.94;4990320;28;20128;-85
2021/06/29 02:15:07;;;;;;;13.05;10.88;;;21.50;96.10;;;20.57;92.97;100133.25;4990383;28;20135;-84
2021/06/29 02:17:34;;;;;;;13.55;10.00;;;21.40;96.10;;;20.55;92.73;100130.75;4990142;28;20665;-84
2021/06/29 02:20:02;;;;;;;12.13;8.27;;;21.40;96.00;;;20.53;92.78;100135.72;4990147;28;20050;-84
2021/06/29 02:22:29;;;;;;;11.82;8.10;;;21.30;96.20;;;20.52;92.74;100128.50;4990339;28;20050;-84
2021/06/29 02:24:58;;;;;;;11.63;7.10;;;21.30;96.30;;;20.51;92.68;100121.31;4990042;28;20046;-85
2021/06/29 02:27:29;;;;;;;10.63;8.18;;;21.30;96.40;;;20.51;92.42;100111.09;4990079;28;20090;-84
2021/06/29 02:29:57;;;;;;;12.00;7.38;;;21.30;96.40;;;20.49;92.51;100101.41;4972348;28;20046;-84
2021/06/29 02:32:24;;;;;;;9.05;6.78;;;21.20;96.40;;;20.46;92.48;100099.13;4972459;28;20050;-84
2021/06/29 02:34:52;;;;;;;8.60;6.80;;;21.20;96.50;;;20.44;92.41;100101.34;4990323;28;20082;-85
2021/06/29 02:37:19;;;;;;;13.07;6.88;;;21.20;96.60;;;20.44;92.22;100095.81;4989639;28;20045;-84
2021/06/29 02:39:46;;;;;;;10.32;6.43;;;21.20;96.60;;;20.43;92.19;100088.63;4990077;28;20081;-84
2021/06/29 02:42:18;;;;;;;7.97;6.28;;;21.10;96.60;;;20.41;91.87;100085.25;4989819;28;20122;-84
2021/06/29 02:44:45;;;;;;;9.48;6.28;;;21.00;96.50;;;20.40;91.90;100080.84;4989827;28;20049;-84
2021/06/29 02:47:13;;;;;;;9.95;6.78;;;21.00;96.60;;;20.38;92.07;100078.31;4989492;28;20050;-84
2021/06/29 02:49:40;;;;;;;10.38;6.50;;;21.00;96.60;;;20.36;91.85;100075.00;4989805;28;20042;-85
2021/06/29 02:52:08;;;;;;;11.07;6.70;;;21.00;96.70;;;20.34;91.76;100074.41;4989834;28;20052;-85
2021/06/29 02:54:35;;;;;;;7.65;6.28;;;20.90;96.60;;;20.34;91.67;100081.88;4971890;28;20213;-85
2021/06/29 02:57:03;;;;;;;8.95;7.40;;;20.90;96.60;;;20.33;91.59;100085.72;4989767;28;20053;-85
2021/06/29 02:59:31;;;;;;;7.90;6.60;;;20.90;96.60;;;20.31;91.31;100083.22;4989451;28;20387;-84
2021/06/29 03:01:59;;;;;;;9.65;7.00;;;20.80;96.50;;;20.30;91.39;100076.88;4989661;28;20130;-84
2021/06/29 03:04:28;;;;;;;9.82;6.75;;;20.90;96.70;;;20.28;91.20;100078.22;4989187;28;20120;-85
2021/06/29 03:06:55;;;;;;;12.15;7.40;;;20.80;96.30;;;20.26;91.18;100086.78;4989241;28;20124;-84
2021/06/29 03:09:22;;;;;;;13.10;6.85;;;20.80;96.40;;;20.21;91.15;100086.72;4989384;28;20052;-84
2021/06/29 03:11:50;;;;;;;10.23;7.22;;;20.80;96.40;;;20.21;91.18;100095.00;4973146;28;20042;-84
2021/06/29 03:14:17;;;;;;;8.95;6.80;;;20.70;96.50;;;20.21;91.12;100091.41;4989384;28;20049;-85
2021/06/29 03:16:46;;;;;;;10.07;6.95;;;20.70;96.50;;;20.16;91.20;100086.66;4988261;28;20135;-84
2021/06/29 03:19:13;;;;;;;9.18;6.55;;;20.70;96.50;;;20.15;91.18;100079.47;4989502;28;20080;-85
2021/06/29 03:21:40;;;;;;;9.55;6.55;;;20.70;96.70;;;20.15;90.96;100078.63;4989046;28;20119;-84
2021/06/29 03:24:08;;;;;;;8.98;7.10;;;20.70;96.70;;;20.13;90.83;100076.13;4989190;28;20461;-84
2021/06/29 03:26:36;;;;;;;8.20;6.75;;;20.60;96.50;;;20.12;90.79;100068.91;4988572;28;20137;-84
2021/06/29 03:29:05;;;;;;;10.05;7.43;;;20.60;96.50;;;20.11;90.78;100073.63;4989103;28;20081;-84
2021/06/29 03:31:33;;;;;;;9.63;6.65;;;20.60;96.60;;;20.08;90.78;100074.13;4989280;28;20052;-85
2021/06/29 03:34:01;;;;;;;10.13;7.03;;;20.60;96.50;;;20.08;90.61;100081.59;4971311;28;20561;-84
2021/06/29 03:36:29;;;;;;;8.20;6.45;;;20.50;96.50;;;20.06;90.79;100087.38;4988612;28;20096;-84
2021/06/29 03:38:57;;;;;;;8.40;6.57;;;20.50;96.60;;;20.06;90.65;100086.53;4989134;28;20073;-84
2021/06/29 03:41:24;;;;;;;10.88;7.28;;;20.50;96.50;;;20.03;90.69;100081.50;4991695;28;20046;-84
2021/06/29 03:43:52;;;;;;;8.73;7.20;;;20.50;96.50;;;20.03;90.69;100076.00;4992602;28;20607;-84
2021/06/29 03:46:19;;;;;;;9.32;6.97;;;20.50;96.60;;;20.02;90.76;100079.88;4991395;28;20050;-84
2021/06/29 03:48:47;;;;;;;9.48;7.03;;;20.50;96.70;;;20.02;90.87;100079.88;4993201;28;20046;-84
2021/06/29 03:51:15;;;;;;;9.63;7.38;;;20.50;96.70;;;20.00;90.75;100071.81;4992748;28;20538;-84
2021/06/29 03:53:43;;;;;;;8.95;6.93;;;20.50;96.80;;;20.01;90.85;100078.19;4991503;28;20051;-79
2021/06/29 03:56:24;;;;;;;10.95;7.40;;;20.50;96.70;;;20.00;91.08;100066.31;4984752;28;20039;-81
2021/06/29 03:58:52;;;;;;;10.02;7.20;;;20.60;96.70;;;20.00;91.05;100076.53;4992921;28;20061;-87
2021/06/29 04:01:20;;;;;;;9.50;7.50;;;20.60;96.60;;;20.00;90.93;100082.06;4992497;28;20050;-84
2021/06/29 04:03:48;;;;;;;9.05;6.60;;;20.60;96.50;;;20.01;90.91;100079.03;4992606;28;20081;-84
2021/06/29 04:06:16;;;;;;;10.18;7.72;;;20.60;96.40;;;20.00;91.19;100073.75;4992324;28;20068;-84
2021/06/29 04:08:44;;;;;;;9.40;7.05;;;20.60;96.40;;;20.01;91.12;100076.28;4975140;28;20517;-84
2021/06/29 04:11:11;;;;;;;9.68;7.43;;;20.70;96.50;;;20.02;91.21;100079.88;4992669;28;20109;-84
2021/06/29 04:13:38;;;;;;;11.10;8.07;;;20.70;96.20;;;20.04;91.38;100066.63;4992254;28;20046;-84
2021/06/29 04:16:05;;;;;;;11.40;7.70;;;20.80;96.20;;;20.06;91.41;100081.00;4992272;28;20129;-85
2021/06/29 04:18:33;;;;;;;11.07;7.38;;;20.80;96.20;;;20.07;91.59;100071.66;4990964;28;20047;-84
2021/06/29 04:21:00;;;;;;;11.70;7.70;;;20.90;96.20;;;20.06;92.07;100076.31;4992340;28;20558;-84
2021/06/29 04:23:29;;;;;;;10.25;7.65;;;20.90;96.20;;;20.07;92.09;100077.16;4992230;28;20050;-84
2021/06/29 04:25:56;;;;;;;14.07;7.90;;;20.90;96.60;;;20.07;92.26;100068.88;4992084;28;20513;-85
2021/06/29 04:28:23;;;;;;;15.85;8.63;;;20.90;96.60;;;20.08;92.40;100070.53;4974581;28;20557;-85
2021/06/29 04:30:51;;;;;;;11.43;7.50;;;20.90;96.90;;;20.07;93.51;100078.00;4992107;28;20046;-84
2021/06/29 04:33:18;;;;;;;12.20;6.70;;;20.90;97.40;;;20.08;93.54;100078.81;4974457;28;20086;-85
2021/06/29 04:35:45;;;;;;;12.43;7.28;;;21.00;97.20;;;20.07;93.81;100083.53;4992022;28;20046;-85
2021/06/29 04:38:13;;;;;;;10.38;7.00;;;21.00;97.10;;;20.09;93.53;100075.81;4991940;28;20038;-84
2021/06/29 04:40:41;;;;;;;8.73;6.88;;;21.00;96.90;;;20.11;93.55;100084.66;4991844;28;20125;-84
2021/06/29 04:43:09;;;;;;;8.45;6.32;;;21.00;96.70;;;20.14;93.42;100083.31;4991714;28;20096;-84
2021/06/29 04:45:36;;;;;;;7.95;6.20;;;21.10;96.60;;;20.16;93.84;100080.28;4991666;28;20061;-84
2021/06/29 04:48:04;;;;;;;10.88;6.53;;;21.20;96.30;;;20.20;93.76;100092.50;4991988;28;20050;-83
2021/06/29 04:50:31;;;;;;;9.00;6.38;;;21.30;95.90;;;20.22;94.02;100090.31;4992020;28;20048;-84
2021/06/29 04:52:59;;;;;;;11.82;6.60;;;21.50;95.70;;;20.26;94.28;100092.31;4992037;28;20086;-84
2021/06/29 04:55:27;;;;;;;9.95;6.25;;;21.60;95.20;;;20.29;94.51;100083.47;4992994;28;20085;-84
2021/06/29 04:57:56;;;;;;;10.77;6.18;;;21.60;94.80;;;20.31;94.38;100083.22;4992127;28;20453;-84
2021/06/29 05:00:23;;;;;;;8.60;6.25;;;21.60;95.10;;;20.30;94.42;100071.34;4992383;28;20388;-87
2021/06/29 05:02:53;;;;;;;11.02;5.88;;;21.60;95.10;;;20.31;94.35;100061.13;4994967;28;20042;-86
2021/06/29 05:05:20;;;;;;;8.32;6.32;;;21.60;95.10;;;20.34;94.28;100065.31;4997841;28;20118;-84
2021/06/29 05:07:49;;;;;;;10.05;6.95;;;21.60;94.90;;;20.33;94.16;100063.63;4999306;28;20048;-83
2021/06/29 05:10:17;;;;;;;10.65;7.05;;;21.60;94.50;;;20.36;93.94;100074.16;4985673;28;20109;-84
2021/06/29 05:12:48;;;;;;;10.43;6.85;;;21.70;94.30;;;20.36;93.83;100068.63;4990420;28;20458;-84
2021/06/29 05:15:17;;;;;;;9.73;7.13;;;21.60;94.20;;;20.36;93.41;100063.13;4990593;28;20054;-86
2021/06/29 05:17:44;;;;;;;11.65;6.95;;;21.60;94.10;;;20.37;93.31;100070.28;4991261;28;20066;-84
2021/06/29 05:20:13;;;;;;;11.20;7.50;;;21.60;94.10;;;20.36;93.09;100077.75;4990980;28;20725;-85
2021/06/29 05:22:40;;;;;;;13.20;7.00;;;21.60;93.90;;;20.37;92.95;100075.81;4991527;28;20080;-85
2021/06/29 05:25:09;;;;;;;10.18;6.75;;;21.70;93.80;;;20.36;92.88;100079.69;4991439;28;20462;-86
2021/06/29 05:27:39;;;;;;;10.35;7.40;;;21.60;93.60;;;20.34;93.03;100076.34;4991008;28;20050;-84
2021/06/29 05:30:09;;;;;;;11.07;7.15;;;21.70;93.60;;;20.36;93.02;100074.16;4991207;28;20045;-83
2021/06/29 05:32:38;;;;;;;10.27;7.80;;;21.60;93.50;;;20.38;92.85;100077.50;4973228;28;20577;-86
2021/06/29 05:35:07;;;;;;;12.68;8.00;;;21.70;93.60;;;20.40;92.67;100091.91;4991260;28;20046;-85
2021/06/29 05:37:35;;;;;;;12.63;7.68;;;21.60;93.60;;;20.38;93.17;100083.84;4990415;28;20129;-85
2021/06/29 05:40:02;;;;;;;11.32;8.45;;;21.70;93.80;;;20.39;93.39;100082.78;4991445;28;20085;-85
2021/06/29 05:42:41;;;;;;;13.73;8.30;;;21.60;93.80;;;20.40;93.21;100073.38;4996169;28;20026;-93
2021/06/29 05:45:12;;;;;;;12.38;8.45;;;21.80;93.60;;;20.41;93.27;100074.19;5007399;28;20095;-91
2021/06/29 05:48:01;;;;;;;;;;;;;;;;;;;;;
2021/06/29 05:50:29;;;;;;;12.13;8.98;;;21.90;92.80;;;20.48;93.41;100070.13;5011686;28;20042;-87
2021/06/29 05:53:00;;;;;;;11.30;9.18;;;22.00;92.40;;;20.52;93.33;100075.97;5011079;28;20045;-90
2021/06/29 05:55:27;;;;;;;10.50;8.48;;;22.10;92.20;;;20.54;93.34;100081.25;4993915;28;20077;-91
2021/06/29 05:57:58;;;;;;;11.75;9.40;;;22.20;91.90;;;20.56;93.33;100070.75;4994969;28;20054;-92
2021/06/29 06:00:25;;;;;;;15.00;8.75;;;22.30;91.10;;;20.60;93.37;100074.69;4991560;28;20089;-93
2021/06/29 06:02:55;;;;;;;12.13;8.77;;;22.50;90.50;;;20.66;93.09;100073.66;4989523;28;20038;-94
2021/06/29 06:05:22;;;;;;;10.90;8.52;;;22.70;89.90;;;20.69;93.19;100073.97;4991379;28;20145;-92
2021/06/29 06:07:54;;;;;;;14.27;9.13;;;23.10;88.80;;;20.75;92.98;100080.38;4992020;28;20069;-93
2021/06/29 06:10:22;;;;;;;14.98;9.77;;;23.60;86.20;;;20.84;93.09;100089.03;4993334;28;20038;-92
2021/06/29 06:12:57;;;;;;;17.35;11.02;;;24.00;84.10;;;20.92;92.70;100083.00;4991798;28;20499;-93
2021/06/29 06:15:33;;;;;;;15.48;11.13;;;24.80;81.50;;;21.05;92.68;100088.09;4973266;28;20576;-92
2021/06/29 06:18:06;;;;;;;17.95;11.00;;;26.00;76.90;;;21.21;92.50;100086.28;4998491;28;20030;-92
2021/06/29 06:20:35;;;;;;;17.73;12.35;;;27.00;72.50;;;21.38;92.88;100086.13;4994411;28;20034;-92
2021/06/29 06:23:04;;;;;;;16.00;12.90;;;27.80;69.50;;;21.51;91.96;100075.69;4996666;28;20558;-92
2021/06/29 06:25:32;;;;;;;18.77;13.18;;;27.30;69.90;;;21.57;91.75;100085.69;5003345;28;20498;-93
2021/06/29 06:28:00;;;;;;;23.42;15.20;;;26.40;72.30;;;21.60;90.63;100087.94;4972802;28;20101;-91
2021/06/29 06:30:28;;;;;;;23.42;17.77;;;25.40;75.90;;;21.58;90.02;100090.16;4973010;28;20050;-92
2021/06/29 06:32:55;;;;;;;27.20;19.10;;;24.70;79.10;;;21.54;89.35;100086.25;4988674;28;20065;-93
2021/06/29 06:35:25;;;;;;;23.77;18.17;;;24.10;81.40;;;21.50;89.58;100087.91;4991159;28;20046;-92
2021/06/29 06:37:55;;;;;;;26.90;19.50;;;23.70;83.20;;;21.47;89.69;100087.28;5009090;28;20080;-93
2021/06/29 06:40:22;;;;;;;29.45;19.73;;;23.50;84.40;;;21.44;89.82;100095.34;4991740;28;20057;-94
2021/06/29 06:42:50;;;;;;;29.75;19.65;;;23.30;85.30;;;21.40;90.11;100089.47;4991357;28;20065;-92
2021/06/29 06:45:20;;;;;;;25.67;17.75;;;23.20;86.40;;;21.34;90.60;100084.97;4989768;28;20050;-93
2021/06/29 06:47:47;;;;;;;23.88;16.52;;;23.10;87.10;;;21.33;90.45;100088.84;4988916;28;20038;-83
2021/06/29 06:50:14;;;;;;;22.52;14.48;;;23.00;87.40;;;21.32;90.18;100073.34;4971750;28;20101;-87
2021/06/29 06:52:43;;;;;;;19.73;12.77;;;23.20;87.20;;;21.36;90.89;100074.50;5006478;28;20069;-86
2021/06/29 06:55:11;;;;;;;17.52;11.30;;;23.60;86.60;;;21.42;90.80;100086.44;5008806;28;20584;-85
2021/06/29 06:57:39;;;;;;;18.00;10.77;;;23.80;85.70;;;21.45;89.97;100075.66;5008846;28;20108;-88
2021/06/29 07:00:09;;;;;;;14.98;10.55;;;24.10;84.20;;;21.53;91.15;100081.81;4993301;28;20050;-86
2021/06/29 07:02:37;;;;;;;17.17;11.10;;;24.20;83.30;;;21.56;91.37;100078.50;4988232;28;20057;-85
2021/06/29 07:05:06;;;;;;;15.07;9.50;;;24.30;84.00;;;21.59;91.16;100077.94;4988684;28;20046;-88
2021/06/29 07:07:33;;;;;;;14.75;10.27;;;24.30;83.60;;;21.58;90.60;100070.75;4988436;28;20053;-89
2021/06/29 07:10:02;;;;;;;14.43;9.25;;;24.10;83.60;;;21.58;90.20;100073.53;4988620;28;20046;-89
2021/06/29 07:12:29;;;;;;;16.77;9.15;;;24.00;84.10;;;21.56;90.94;100076.56;4989206;28;20038;-91
2021/06/29 07:14:57;;;;;;;12.38;8.45;;;23.90;84.90;;;21.58;90.11;100079.06;4988233;28;20049;-89
2021/06/29 07:17:25;;;;;;;14.88;7.88;;;24.00;84.20;;;21.59;90.94;100077.94;4977618;28;20049;-89
2021/06/29 07:19:54;;;;;;;15.75;8.15;;;24.00;84.50;;;21.63;90.37;100077.16;4991515;28;20050;-89
2021/06/29 07:22:22;;;;;;;9.93;6.60;;;24.10;83.90;;;21.69;89.98;100082.75;5009170;28;20649;-89
2021/06/29 07:24:49;;;;;;;10.55;6.75;;;24.20;83.80;;;21.72;90.08;100085.78;5002287;28;20113;-89
2021/06/29 07:27:22;;;;;;;10.07;6.55;;;24.20;83.60;;;21.71;89.77;100084.13;4991999;28;20130;-89
2021/06/29 07:29:49;;;;;;;9.73;5.15;;;24.10;83.60;;;21.72;88.74;100085.78;4989094;28;20042;-89
2021/06/29 07:32:16;;;;;;;8.73;5.55;;;24.10;83.40;;;21.72;88.51;100091.31;4989446;28;20046;-91
2021/06/29 07:34:44;;;;;;;9.90;5.72;;;24.10;83.20;;;21.71;88.27;100089.66;4988682;28;20422;-89
2021/06/29 07:37:11;;;;;;;8.23;5.28;;;24.00;83.00;;;21.72;87.99;100088.53;4988417;28;20050;-89
2021/06/29 07:39:39;;;;;;;7.68;5.22;;;24.00;83.10;;;21.71;88.50;100077.75;4989585;28;20065;-90
2021/06/29 07:42:07;;;;;;;9.40;5.53;;;24.00;83.50;;;21.70;88.41;100082.44;4989379;28;20050;-89
2021/06/29 07:44:36;;;;;;;9.07;5.60;;;23.90;83.60;;;21.73;88.31;100087.47;4989331;28;20049;-88
2021/06/29 07:47:04;;;;;;;9.43;5.30;;;24.00;83.40;;;21.73;87.81;100081.09;4988735;28;20038;-87
2021/06/29 07:49:33;;;;;;;9.95;6.07;;;23.90;83.30;;;21.70;87.58;100078.84;4989920;28;20807;-88
2021/06/29 07:52:00;;;;;;;8.98;4.72;;;23.90;83.40;;;21.72;87.63;100090.50;4973719;28;20652;-89
2021/06/29 07:54:28;;;;;;;7.18;5.05;;;23.80;83.50;;;21.74;88.07;100089.13;4988995;28;20263;-88
2021/06/29 07:56:55;;;;;;;9.23;5.32;;;23.90;83.90;;;21.76;87.94;100088.84;4972426;28;20049;-91
2021/06/29 07:59:22;;;;;;;8.77;4.97;;;24.10;83.10;;;21.78;89.32;100083.88;4970315;28;20050;-85
2021/06/29 08:01:51;;;;;;;8.10;5.70;;;24.10;83.70;;;21.79;88.54;100085.53;4969830;28;20510;-86
2021/06/29 08:04:18;;;;;;;10.73;6.32;;;24.10;82.90;;;21.80;88.32;100082.50;5004598;23;20054;-78
2021/06/29 08:06:46;;;;;;;9.30;5.80;;;24.10;82.90;;;21.82;88.84;100083.06;5005321;28;20724;-78
2021/06/29 08:09:13;;;;;;;11.18;7.28;;;24.10;83.60;;;21.82;87.98;100077.53;4996587;28;20121;-78
2021/06/29 08:11:40;;;;;;;11.88;7.15;;;24.20;82.90;;;21.85;88.24;100074.19;4987620;28;20066;-77
2021/06/29 08:14:08;;;;;;;11.27;7.07;;;24.20;82.80;;;21.90;88.69;100078.13;4977349;28;20051;-78
2021/06/29 08:16:35;;;;;;;11.18;8.23;;;24.30;83.50;;;21.90;88.57;100076.19;4967899;28;20500;-78
2021/06/29 08:19:04;;;;;;;11.40;8.18;;;24.30;82.60;;;21.91;88.29;100079.78;4968274;28;20038;-78
2021/06/29 08:21:31;;;;;;;18.40;8.60;;;24.20;82.60;;;21.91;88.21;100086.13;4981655;28;20550;-77
2021/06/29 08:23:59;;;;;;;12.52;8.15;;;24.20;82.90;;;21.87;87.13;100082.25;4986351;28;20045;-77
2021/06/29 08:26:26;;;;;;;13.85;9.48;;;24.10;82.40;;;21.90;87.38;100080.91;4967373;28;20078;-78
2021/06/29 08:28:53;;;;;;;15.13;10.27;;;24.10;82.70;;;21.90;87.76;100087.25;4971386;28;20451;-78
2021/06/29 08:31:21;;;;;;;15.95;11.43;;;24.00;83.60;;;21.88;87.33;100078.38;4971568;28;20122;-79
2021/06/29 08:33:49;;;;;;;18.35;12.65;;;24.00;83.60;;;21.91;87.32;100088.09;4971296;28;20138;-78
2021/06/29 08:36:18;;;;;;;22.27;15.10;;;24.10;83.40;;;21.87;87.03;100085.03;4971195;28;20089;-78
2021/06/29 08:38:46;;;;;;;23.52;16.08;;;24.10;83.10;;;21.89;86.83;100093.88;4971416;28;20035;-78
2021/06/29 08:41:14;;;;;;;21.88;14.07;;;24.10;82.60;;;21.91;86.91;100093.63;4989145;28;20133;-78
2021/06/29 08:43:42;;;;;;;21.20;14.95;;;24.10;82.90;;;21.94;87.94;100098.63;4990639;28;20089;-77
2021/06/29 08:46:10;;;;;;;23.92;15.68;;;24.10;83.70;;;21.93;87.60;100091.41;4990424;28;20145;-77
2021/06/29 08:48:39;;;;;;;21.60;15.15;;;24.10;83.30;;;21.86;87.36;100086.97;4990535;28;20120;-77
2021/06/29 08:51:07;;;;;;;21.10;14.32;;;24.00;83.40;;;21.89;88.22;100096.66;4990084;28;20409;-78
2021/06/29 08:53:37;;;;;;;23.65;15.55;;;24.10;83.90;;;21.91;87.94;100097.22;4990551;28;20054;-78
2021/06/29 08:56:05;;;;;;;24.27;15.48;;;24.10;83.60;;;21.90;88.52;100092.81;4989807;28;20046;-78
2021/06/29 08:58:33;;;;;;;24.77;16.60;;;24.10;83.60;;;21.93;87.92;100088.66;4989176;28;20052;-78
2021/06/29 09:01:02;;;;;;;24.00;17.48;;;24.10;83.50;;;21.92;87.37;100093.38;4990362;28;20105;-79
2021/06/29 09:03:29;;;;;;;29.15;21.73;;;24.10;83.50;;;21.88;87.43;100088.66;4951179;28;1098354;-79
2021/06/29 09:05:57;;;;;;;29.92;21.77;;;24.10;83.50;;;21.89;87.28;100091.13;4988898;28;20046;-78
2021/06/29 09:08:26;;;;;;;34.97;24.80;;;24.10;83.50;;;21.89;87.19;100093.06;4968820;28;20043;-78
2021/06/29 09:11:11;;;;;;;33.90;24.20;;;24.10;83.30;;;21.92;87.18;100092.53;4968972;28;20419;-79
2021/06/29 09:13:40;;;;;;;35.70;26.23;;;24.10;83.00;;;21.92;86.86;100095.31;4969506;28;20046;-78
2021/06/29 09:16:08;;;;;;;36.78;26.90;;;24.10;83.50;;;21.89;86.76;100093.06;4969025;28;20125;-78
2021/06/29 09:18:40;;;;;;;33.00;25.70;;;24.10;82.60;;;21.91;86.91;100086.13;4970616;28;20035;-78
2021/06/29 09:21:10;;;;;;;33.03;26.05;;;24.10;83.20;;;21.94;87.02;100095.88;4970152;28;20415;-79
2021/06/29 09:23:40;;;;;;;36.05;25.60;;;24.10;82.90;;;21.99;88.16;100082.00;4970215;28;20415;-78
2021/06/29 09:26:12;;;;;;;33.60;25.33;;;24.20;83.20;;;22.02;87.91;100084.25;4970297;28;20764;-79
2021/06/29 09:28:45;;;;;;;34.03;24.20;;;24.40;82.70;;;22.09;88.72;100090.38;4968067;28;20090;-78
2021/06/29 09:31:14;;;;;;;32.17;23.13;;;24.50;82.90;;;22.14;87.36;100087.63;4968643;28;20418;-78
2021/06/29 09:33:45;;;;;;;29.73;22.58;;;24.70;81.40;;;22.15;86.99;100089.28;4971311;28;20169;-78
2021/06/29 09:36:15;;;;;;;28.10;21.20;;;24.70;81.00;;;22.21;89.35;100093.75;4970656;28;20097;-78
2021/06/29 09:38:44;;;;;;;30.50;23.08;;;24.80;81.90;;;22.21;86.50;100090.97;4966389;28;20128;-78
2021/06/29 09:41:18;;;;;;;29.45;21.98;;;24.80;80.50;;;22.17;85.61;100092.63;4970719;28;20445;-78
2021/06/29 09:43:48;;;;;;;32.15;22.17;;;24.70;80.10;;;22.18;85.52;100097.06;4984695;28;20046;-78
2021/06/29 09:46:17;;;;;;;31.90;23.35;;;24.70;80.30;;;22.19;86.03;100095.94;4970446;28;20050;-78
2021/06/29 09:48:47;;;;;;;30.48;23.15;;;24.60;80.50;;;22.22;86.42;100091.81;4968651;28;20034;-78
2021/06/29 09:51:19;;;;;;;33.78;24.48;;;24.70;80.80;;;22.22;86.34;100089.88;4969371;28;20125;-78
2021/06/29 09:53:48;;;;;;;30.38;23.70;;;24.60;80.80;;;22.24;85.80;100093.19;4970791;28;20066;-78
2021/06/29 09:56:19;;;;;;;31.48;24.38;;;24.60;79.70;;;22.23;84.88;100101.78;4973577;28;20046;-78
2021/06/29 09:58:50;;;;;;;35.28;23.88;;;24.60;80.10;;;22.22;83.69;100092.66;4970246;28;20086;-79
2021/06/29 10:01:19;;;;;;;;;;;24.60;79.30;;;22.24;84.18;100095.16;4969080;28;20071;-79
2021/06/29 10:03:50;;;;;;;28.88;21.00;;;24.60;80.30;;;22.23;84.66;100091.53;4967725;28;20005;-80
2021/06/29 10:06:21;;;;;;;29.92;21.52;;;24.60;80.30;;;22.19;82.99;100095.13;4967230;28;20050;-80
2021/06/29 10:08:50;;;;;;;;;;;24.60;79.40;;;22.21;83.99;100090.13;4968214;28;20125;-80
2021/06/29 10:11:23;;;;;;;29.70;21.83;;;24.60;80.20;;;22.21;84.23;100093.75;4969987;28;19926;-80
2021/06/29 10:13:59;;;;;;;26.55;20.05;;;24.60;80.10;;;22.24;84.46;100092.38;4965707;28;20308;-78
2021/06/29 10:16:33;;;;;;;30.05;22.27;;;24.60;79.90;;;22.30;87.47;100090.50;4981823;28;20114;-80